1. Some clips from our spring course 2009.
    Camera: Martin Rolih & me (EOS 5D mkII)
    Music: Galdson - Legends (available at http://www.jamendo.com)

    You can see our works at:
    http://my.opera.com/risanje/albums/

    Uploaded 164 Plays 1 Comment
  2. Shepard Fairey paints at Studio No. 2 in Los Angeles

    http://arkitip.com/magazines/0051-shepard-fairey/

    Directed by Felipe Lima
    Produced by Scott A. Sant'Angelo

    Music: 'Everybody's Down' by No Age

    # vimeo.com/5148749 Uploaded 235K Plays 76 Comments
  3. Landing in low visibility using gps with a Boeing 737-300 of VARIG

    Metar
    SBRJ 090200Z 14010KT 4000 -DZ BKN010 BKN015 OVC080 18/17 Q1027

    Wind: 140 True, 10 Kts
    Vis: 4002 Meters, 2 SM
    Clouds: 1000 Broken
    Precip: Light Rain
    Temp: 18C Dew: 17C
    Pressure: 1027 mb, 30,33 inches, By Active Sky

    Model: 50th North
    Music: Moby - Extreme Ways

    # vimeo.com/2581401 Uploaded 319 Plays 2 Comments

LA MAISON BLANCHE

Owl Medicine

WHITE HOUSE VIDEOS from the OFFICIAL SITE

Browse This Channel

Shout Box

Heads up: the shoutbox will be retiring soon. It’s tired of working, and can’t wait to relax. You can still send a message to the channel owner, though!

Channels are a simple, beautiful way to showcase and watch videos. Browse more Channels.